createdAt,value
2022-08-03T00:20:00.485Z,16.94
2022-08-03T00:40:03.571Z,16.68
2022-08-03T01:00:08.269Z,16.30
2022-08-03T01:20:10.950Z,16.11
2022-08-03T01:40:14.354Z,15.95
2022-08-03T02:00:16.827Z,15.69
2022-08-03T02:20:22.420Z,15.79
2022-08-03T02:40:24.916Z,15.86
2022-08-03T03:00:28.658Z,15.88
2022-08-03T03:20:31.534Z,15.98
2022-08-03T03:40:34.272Z,16.00
2022-08-03T04:00:36.910Z,16.20
2022-08-03T04:20:39.434Z,16.64
2022-08-03T04:40:42.145Z,17.31
2022-08-03T05:00:46.565Z,18.26
2022-08-03T05:20:49.824Z,19.84
2022-08-03T05:40:57.497Z,19.94
2022-08-03T06:01:15.331Z,20.03
2022-08-03T06:21:18.060Z,21.65
2022-08-03T06:41:20.631Z,22.78
2022-08-03T07:01:23.312Z,22.98
2022-08-03T07:21:25.775Z,23.43
2022-08-03T07:41:28.479Z,23.83
2022-08-03T08:01:31.327Z,24.28
2022-08-03T08:21:53.394Z,24.80
2022-08-03T08:41:56.629Z,25.28
2022-08-03T09:02:00.010Z,27.04
2022-08-03T09:22:02.716Z,26.53
2022-08-03T09:42:05.536Z,25.60
2022-08-03T10:02:08.073Z,27.42
2022-08-03T10:22:10.778Z,26.58
2022-08-03T10:42:14.699Z,27.09
2022-08-03T11:02:17.755Z,26.91
2022-08-03T11:22:20.426Z,28.14
2022-08-03T11:42:23.071Z,29.22
2022-08-03T12:02:25.647Z,27.78
2022-08-03T12:22:28.363Z,27.17
2022-08-03T12:42:31.068Z,27.68
2022-08-03T13:02:33.844Z,28.03
2022-08-03T13:22:37.141Z,28.67
2022-08-03T13:42:39.678Z,29.03
2022-08-03T14:02:42.464Z,27.68
2022-08-03T14:22:45.200Z,28.04
2022-08-03T14:42:47.899Z,29.30
2022-08-03T15:02:51.461Z,29.92
2022-08-03T15:22:54.498Z,29.11
2022-08-03T15:42:57.140Z,28.71
2022-08-03T16:03:00.584Z,28.80
2022-08-03T16:23:11.048Z,28.70
2022-08-03T16:43:18.898Z,29.09
2022-08-03T17:03:24.218Z,28.17
2022-08-03T17:23:35.255Z,27.45
2022-08-03T17:44:13.420Z,26.79
2022-08-03T18:04:00.816Z,25.97
2022-08-03T18:24:03.338Z,24.85
2022-08-03T18:44:08.612Z,24.00
2022-08-03T19:04:12.361Z,23.00
2022-08-03T19:24:15.004Z,22.39
2022-08-03T19:44:20.140Z,22.05
2022-08-03T20:04:23.342Z,21.81
2022-08-03T20:24:27.226Z,21.43
2022-08-03T20:44:30.701Z,20.90
2022-08-03T21:04:33.437Z,20.73
2022-08-03T21:24:36.245Z,20.35
2022-08-03T21:44:38.954Z,20.16
2022-08-03T22:04:53.191Z,20.05
2022-08-03T22:24:59.617Z,19.97
2022-08-03T22:45:02.253Z,19.83
2022-08-03T23:05:04.970Z,19.61
2022-08-03T23:25:13.702Z,19.38
2022-08-03T23:45:16.437Z,19.19
